Time;durP1;ratioP1;P1;durP2;ratioP2;P2;SDS_P1;SDS_P2;PMS_P1;PMS_P2;Temp;Humidity;BMP_temperature;BMP_pressure;BME280_temperature;BME280_humidity;BME280_pressure;Samples;Min_cycle;Max_cycle;Signal;HPM_P1;HPM_P2
2022/11/26 00:02:17;;;;;;;5.47;2.88;;;;;;;5.36;68.54;101959.91;4990335;28;20035;-84
2022/11/26 00:04:43;;;;;;;7.15;4.75;;;;;;;5.35;69.02;101959.06;4958411;28;20037;-83
2022/11/26 00:07:12;;;;;;;6.60;2.80;;;;;;;5.35;68.49;101956.50;4990439;28;20038;-83
2022/11/26 00:09:37;;;;;;;4.38;2.55;;;;;;;5.40;68.61;101970.13;4989635;28;20027;-84
2022/11/26 00:12:19;;;;;;;7.25;3.20;;;;;;;5.36;68.12;101950.50;4973961;28;20030;-83
2022/11/26 00:14:46;;;;;;;3.58;2.92;;;;;;;5.46;68.36;101976.94;4974570;28;20031;-84
2022/11/26 00:17:12;;;;;;;4.35;2.85;;;;;;;5.35;68.46;101959.06;4974246;28;20510;-84
2022/11/26 00:19:38;;;;;;;4.47;3.22;;;;;;;5.46;68.49;101971.81;4990176;28;20516;-84
2022/11/26 00:22:04;;;;;;;4.15;2.67;;;;;;;5.45;68.35;101964.97;4974063;28;20070;-83
2022/11/26 00:24:30;;;;;;;5.32;3.22;;;;;;;5.48;68.63;101976.06;4973458;28;20051;-83
2022/11/26 00:26:56;;;;;;;5.18;2.55;;;;;;;5.43;68.61;101969.28;4990237;28;20519;-83
2022/11/26 00:29:22;;;;;;;10.15;4.15;;;;;;;5.44;68.49;101969.25;4990329;28;20500;-84
2022/11/26 00:32:13;;;;;;;5.00;3.03;;;;;;;5.51;68.51;101971.81;4973686;28;20035;-83
2022/11/26 00:34:38;;;;;;;2.97;2.08;;;;;;;5.57;68.37;101964.91;4973766;28;20436;-83
2022/11/26 00:37:04;;;;;;;6.10;2.90;;;;;;;5.59;67.86;101963.16;4956073;28;20073;-84
2022/11/26 00:39:29;;;;;;;4.72;3.00;;;;;;;5.46;67.83;101947.00;4973689;28;20054;-83
2022/11/26 00:41:55;;;;;;;8.80;3.65;;;;;;;5.64;68.02;101970.84;4974189;28;20066;-83
2022/11/26 00:44:22;;;;;;;5.10;3.13;;;;;;;5.66;68.23;101975.09;4957544;28;20035;-84
2022/11/26 00:46:48;;;;;;;4.10;2.90;;;;;;;5.68;67.91;101985.34;4973355;28;20412;-83
2022/11/26 00:49:14;;;;;;;6.90;4.18;;;;;;;5.45;67.90;101950.44;4989715;28;20026;-83
2022/11/26 00:51:39;;;;;;;1.83;1.73;;;;;;;5.54;68.24;101977.75;4972889;28;20034;-83
2022/11/26 00:54:05;;;;;;;8.20;2.78;;;;;;;5.57;67.83;101989.72;4989438;28;20059;-83
2022/11/26 00:56:30;;;;;;;3.38;2.13;;;;;;;5.44;68.28;101978.69;4989980;28;20472;-83
2022/11/26 00:58:56;;;;;;;5.95;2.50;;;;;;;5.48;68.19;101981.22;4989138;28;20038;-84
2022/11/26 01:01:26;;;;;;;5.88;3.65;;;;;;;5.41;68.26;101959.03;4989559;28;20097;-83
2022/11/26 01:03:51;;;;;;;2.55;2.35;;;;;;;5.54;67.92;101985.47;4957319;28;20480;-83
2022/11/26 01:06:22;;;;;;;3.40;3.08;;;;;;;5.46;68.26;101975.22;4972960;28;20041;-83
2022/11/26 01:08:47;;;;;;;4.03;3.35;;;;;;;5.35;68.44;101989.00;4972729;28;20050;-84
2022/11/26 01:11:15;;;;;;;4.88;2.47;;;;;;;5.27;68.50;101976.19;4972061;28;20523;-83
2022/11/26 01:13:42;;;;;;;4.03;2.80;;;;;;;5.27;68.80;101975.34;4972839;28;20121;-83
2022/11/26 01:16:21;;;;;;;1.33;1.25;;;;;;;5.19;69.12;101968.53;4973170;28;20027;-83
2022/11/26 01:18:47;;;;;;;3.42;2.58;;;;;;;5.26;68.88;101989.03;4973027;28;20030;-84
2022/11/26 01:21:13;;;;;;;5.25;2.97;;;;;;;5.33;68.88;101986.44;4956763;28;20385;-83
2022/11/26 01:23:39;;;;;;;4.90;3.42;;;;;;;5.24;68.99;101985.66;4973086;28;20037;-83
2022/11/26 01:26:05;;;;;;;8.35;3.42;;;;;;;5.35;68.50;101991.56;4972901;28;20030;-83
2022/11/26 01:28:30;;;;;;;4.03;2.65;;;;;;;5.19;68.55;101980.50;4956354;28;20065;-83
2022/11/26 01:30:55;;;;;;;5.22;2.90;;;;;;;5.23;68.86;101994.19;4989030;28;20058;-83
2022/11/26 01:33:21;;;;;;;2.60;2.22;;;;;;;5.24;68.57;101981.38;4972783;28;20026;-83
2022/11/26 01:35:46;;;;;;;2.40;1.77;;;;;;;5.22;68.64;101983.09;4988636;28;20031;-83
2022/11/26 01:38:13;;;;;;;2.53;1.75;;;;;;;5.22;68.51;101983.09;4972690;28;20023;-84
2022/11/26 01:41:13;;;;;;;4.55;2.63;;;;;;;5.17;68.81;101987.38;4972606;28;20110;-83
2022/11/26 01:43:40;;;;;;;5.20;2.72;;;;;;;5.13;68.70;101972.88;4972014;28;20026;-83
2022/11/26 01:46:15;;;;;;;4.97;2.70;;;;;;;5.10;68.41;101978.84;4956225;28;20451;-83
2022/11/26 01:48:40;;;;;;;4.47;3.22;;;;;;;5.11;68.51;101983.16;4972571;28;20090;-83
2022/11/26 01:51:07;;;;;;;5.13;3.00;;;;;;;5.10;68.85;101978.00;4972224;28;20034;-84
2022/11/26 01:53:45;;;;;;;2.20;2.00;;;;;;;4.87;68.87;101930.22;4956236;28;20488;-83
2022/11/26 01:56:23;;;;;;;4.47;2.25;;;;;;;5.06;68.62;101963.50;4971993;28;20030;-83
2022/11/26 01:58:55;;;;;;;4.22;3.20;;;;;;;5.00;68.83;101955.81;4987860;28;20033;-83
2022/11/26 02:01:21;;;;;;;3.50;2.38;;;;;;;5.03;68.75;101976.34;4987934;28;20484;-84
2022/11/26 02:04:05;;;;;;;4.25;1.88;;;;;;;5.07;68.43;101978.03;4971951;28;20042;-84
2022/11/26 02:06:31;;;;;;;2.88;1.92;;;;;;;4.89;68.49;101968.69;4973064;28;20176;-83
2022/11/26 02:08:59;;;;;;;4.13;2.95;;;;;;;4.88;69.00;101972.97;4988214;28;20476;-83
2022/11/26 02:11:24;;;;;;;14.88;2.00;;;;;;;4.87;68.40;101955.88;4971549;28;20041;-83
2022/11/26 02:13:55;;;;;;;2.67;2.38;;;;;;;4.86;68.85;101974.69;4971859;28;20030;-84
2022/11/26 02:16:43;;;;;;;4.50;2.05;;;;;;;4.90;68.94;101970.38;4988148;28;20488;-84
2022/11/26 02:19:38;;;;;;;6.03;2.58;;;;;;;4.84;68.71;101976.41;4984673;28;20050;-83
2022/11/26 02:22:17;;;;;;;3.30;3.00;;;;;;;4.80;69.42;101976.41;4972275;28;20038;-83
2022/11/26 02:24:54;;;;;;;2.60;2.40;;;;;;;4.80;69.05;101986.66;4971467;28;20053;-83
2022/11/26 02:27:35;;;;;;;4.70;2.05;;;;;;;4.84;69.08;101996.94;4971593;28;20493;-83
2022/11/26 02:30:13;;;;;;;4.03;2.70;;;;;;;4.75;69.07;101983.28;4973227;28;20054;-83
2022/11/26 02:33:11;;;;;;;2.88;2.28;;;;;;;4.63;69.16;101953.41;4971273;28;20035;-84
2022/11/26 02:35:44;;;;;;;2.88;2.08;;;;;;;4.61;69.37;101970.50;4986250;28;20058;-83
2022/11/26 02:38:13;;;;;;;3.75;2.83;;;;;;;4.56;69.04;101961.97;4987592;28;20042;-83
2022/11/26 02:40:38;;;;;;;6.18;2.53;;;;;;;4.66;69.33;101971.34;4987429;28;20492;-83
2022/11/26 02:43:03;;;;;;;5.05;2.45;;;;;;;4.71;69.34;101984.13;4971486;28;20041;-83
2022/11/26 02:45:34;;;;;;;1.90;1.70;;;;;;;4.71;69.54;101984.97;4971162;28;20045;-83
2022/11/26 02:48:00;;;;;;;7.45;4.10;;;;;;;4.77;69.07;101995.22;4971015;28;20026;-83
2022/11/26 02:50:30;;;;;;;5.93;2.85;;;;;;;4.60;69.53;101963.66;4987162;28;20031;-83
2022/11/26 02:52:57;;;;;;;3.63;2.53;;;;;;;4.73;69.71;101995.25;4987288;28;20059;-83
2022/11/26 02:55:28;;;;;;;2.47;2.22;;;;;;;4.65;69.50;101995.28;4986248;28;20033;-83
2022/11/26 02:57:53;;;;;;;4.13;2.72;;;;;;;4.38;69.52;101950.06;4955185;28;20154;-83
2022/11/26 03:00:19;;;;;;;5.10;2.42;;;;;;;4.57;69.67;101979.06;4971225;28;20125;-83
2022/11/26 03:03:01;;;;;;;3.97;2.95;;;;;;;4.67;69.52;101988.44;4970904;28;20146;-83
2022/11/26 03:05:26;;;;;;;3.25;2.22;;;;;;;4.71;69.24;101997.81;4954985;28;20061;-83
2022/11/26 03:07:52;;;;;;;4.68;2.95;;;;;;;4.74;69.67;102010.63;4954716;28;20042;-83
2022/11/26 03:10:23;;;;;;;4.72;3.17;;;;;;;4.72;69.25;101991.84;4954875;28;20027;-83
2022/11/26 03:12:49;;;;;;;4.13;3.05;;;;;;;4.78;69.24;102009.75;4954879;28;20027;-83
2022/11/26 03:15:14;;;;;;;4.45;2.22;;;;;;;4.80;69.42;102017.44;4954837;28;20035;-83
2022/11/26 03:17:39;;;;;;;5.63;2.80;;;;;;;4.72;69.47;101999.53;4986844;28;20039;-83
2022/11/26 03:20:06;;;;;;;4.53;2.47;;;;;;;4.90;68.98;102013.97;4954806;28;20026;-83
2022/11/26 03:22:31;;;;;;;4.15;2.63;;;;;;;4.82;69.32;102008.91;4986099;28;20158;-84
2022/11/26 03:24:57;;;;;;;3.50;1.90;;;;;;;4.82;68.78;102003.78;4970439;28;20510;-83
2022/11/26 03:27:22;;;;;;;5.22;2.67;;;;;;;4.85;69.05;102003.75;4970614;28;20038;-83
2022/11/26 03:29:48;;;;;;;3.25;2.15;;;;;;;4.84;69.25;102024.28;4954680;28;20135;-84
2022/11/26 03:32:13;;;;;;;4.57;3.17;;;;;;;4.80;68.71;102020.84;4970066;28;20038;-83
2022/11/26 03:34:38;;;;;;;3.75;2.30;;;;;;;4.53;69.09;101997.88;4970812;28;20058;-83
2022/11/26 03:37:04;;;;;;;7.22;3.40;;;;;;;4.73;68.95;102029.44;4970794;28;20404;-83
2022/11/26 03:39:29;;;;;;;7.25;3.25;;;;;;;4.42;68.93;101991.88;4954323;28;20031;-84
2022/11/26 03:41:55;;;;;;;2.83;2.50;;;;;;;4.57;69.43;102041.41;4954638;28;20023;-84
2022/11/26 03:44:20;;;;;;;7.18;3.78;;;;;;;4.57;69.89;102048.25;4954294;28;20027;-83
2022/11/26 03:46:46;;;;;;;5.90;3.78;;;;;;;4.38;69.81;102039.72;4986367;28;20069;-83
2022/11/26 03:49:11;;;;;;;4.85;2.78;;;;;;;4.30;70.34;102038.88;4970345;28;20027;-83
2022/11/26 03:51:37;;;;;;;4.85;3.10;;;;;;;4.27;69.92;102033.78;4970604;28;20069;-83
2022/11/26 03:54:02;;;;;;;7.65;4.13;;;;;;;4.40;70.25;102055.94;4954402;28;20027;-83
2022/11/26 03:56:28;;;;;;;3.88;3.40;;;;;;;4.45;70.54;102073.91;4970503;28;20022;-83
2022/11/26 03:58:53;;;;;;;5.78;3.78;;;;;;;4.42;70.31;102076.44;4970579;28;20042;-83
2022/11/26 04:01:19;;;;;;;6.07;2.78;;;;;;;4.39;69.94;102079.88;4970262;28;20050;-83
2022/11/26 04:03:44;;;;;;;5.90;3.00;;;;;;;4.35;70.32;102082.44;4954350;28;20077;-83
2022/11/26 04:06:10;;;;;;;5.15;3.38;;;;;;;4.36;70.30;102089.28;4969490;28;20031;-84
2022/11/26 04:08:35;;;;;;;3.78;2.60;;;;;;;4.05;70.32;102050.84;4969990;28;20488;-83
2022/11/26 04:11:01;;;;;;;9.38;2.63;;;;;;;4.09;70.29;102067.06;4971662;28;20043;-83
2022/11/26 04:13:26;;;;;;;3.72;3.22;;;;;;;4.21;70.70;102108.91;4970202;28;20507;-83
2022/11/26 04:15:52;;;;;;;4.00;3.35;;;;;;;4.04;71.01;102087.56;4970094;28;20039;-84
2022/11/26 04:18:17;;;;;;;7.82;3.10;;;;;;;4.13;71.21;102118.31;4970655;28;20086;-83
2022/11/26 04:20:43;;;;;;;4.50;3.22;;;;;;;3.96;70.97;102094.38;4970384;28;20031;-83
2022/11/26 04:23:08;;;;;;;4.13;3.28;;;;;;;4.11;70.89;102119.13;4986492;28;20417;-83
2022/11/26 04:25:34;;;;;;;5.78;3.20;;;;;;;3.97;71.06;102096.06;4986068;28;20057;-83
2022/11/26 04:27:59;;;;;;;9.27;5.32;;;;;;;3.99;71.25;102110.56;4969988;28;20027;-83
2022/11/26 04:30:25;;;;;;;6.95;2.47;;;;;;;3.96;71.35;102113.16;4969884;28;20537;-83
2022/11/26 04:32:50;;;;;;;3.20;2.78;;;;;;;3.96;70.96;102118.25;4986766;28;20058;-83
2022/11/26 04:35:16;;;;;;;5.25;3.42;;;;;;;3.92;71.06;102111.41;4974139;28;20142;-83
2022/11/26 04:37:41;;;;;;;4.32;3.65;;;;;;;3.82;71.00;102088.34;4989700;28;20305;-83
2022/11/26 04:40:07;;;;;;;3.67;2.97;;;;;;;4.05;70.99;102129.38;4973464;28;20069;-83
2022/11/26 04:42:33;;;;;;;7.00;5.10;;;;;;;4.10;70.77;102131.09;4973587;28;20034;-83
2022/11/26 04:44:58;;;;;;;5.63;4.45;;;;;;;3.90;71.05;102096.91;4973224;28;20030;-83
2022/11/26 04:47:24;;;;;;;5.53;4.10;;;;;;;3.80;71.01;102084.94;4989833;28;20034;-83
2022/11/26 04:49:49;;;;;;;3.72;3.15;;;;;;;3.96;71.07;102127.66;4989767;28;20019;-83
2022/11/26 04:52:15;;;;;;;4.35;3.03;;;;;;;4.02;71.53;102148.13;4957233;28;20045;-83
2022/11/26 04:54:40;;;;;;;7.78;4.20;;;;;;;4.02;71.26;102143.88;4973367;28;20485;-83
2022/11/26 04:57:06;;;;;;;5.25;3.13;;;;;;;3.87;71.35;102125.06;4988804;28;20035;-83
2022/11/26 04:59:31;;;;;;;5.82;3.47;;;;;;;3.91;71.49;102124.22;4973090;28;20035;-83
2022/11/26 05:01:58;;;;;;;8.40;4.25;;;;;;;3.94;71.05;102126.81;4973247;28;20038;-83
2022/11/26 05:04:24;;;;;;;7.88;4.97;;;;;;;4.01;71.20;102149.00;4989060;28;20045;-83
2022/11/26 05:06:50;;;;;;;7.88;5.07;;;;;;;4.03;71.34;102150.72;4973161;28;21349;-83
2022/11/26 05:09:15;;;;;;;7.85;4.47;;;;;;;4.01;71.34;102144.72;4989492;28;20031;-83
2022/11/26 05:11:41;;;;;;;5.60;3.22;;;;;;;4.20;70.96;102170.38;4957091;28;20630;-83
2022/11/26 05:14:06;;;;;;;8.00;3.60;;;;;;;4.10;70.45;102146.44;4972697;28;20030;-83
2022/11/26 05:16:32;;;;;;;9.65;4.13;;;;;;;4.12;70.75;102161.81;4989346;28;20043;-83
2022/11/26 05:18:57;;;;;;;5.93;4.68;;;;;;;4.08;70.32;102145.59;4956929;28;20030;-83
2022/11/26 05:21:23;;;;;;;6.88;3.55;;;;;;;4.16;70.54;102164.41;4989464;28;20410;-83
2022/11/26 05:23:48;;;;;;;5.22;2.88;;;;;;;4.14;70.65;102155.00;4972883;28;20109;-83
2022/11/26 05:26:14;;;;;;;12.50;4.90;;;;;;;4.12;70.47;102166.94;4972833;28;20130;-83
2022/11/26 05:28:39;;;;;;;5.15;4.28;;;;;;;4.06;70.69;102157.56;4972384;28;20031;-83
2022/11/26 05:31:05;;;;;;;4.38;3.67;;;;;;;4.06;70.55;102155.00;4973962;28;20500;-83
2022/11/26 05:33:30;;;;;;;5.07;3.58;;;;;;;4.14;70.53;102161.00;4988721;28;20027;-83
2022/11/26 05:35:56;;;;;;;5.85;3.88;;;;;;;4.17;70.24;102168.66;4972799;28;20030;-83
2022/11/26 05:38:21;;;;;;;7.10;4.30;;;;;;;4.17;70.56;102176.34;4956536;28;20039;-83
2022/11/26 05:40:47;;;;;;;6.10;4.13;;;;;;;4.09;70.81;102180.59;4956581;28;20513;-83
2022/11/26 05:43:12;;;;;;;8.77;4.72;;;;;;;3.96;70.57;102159.22;4972288;28;20054;-83
2022/11/26 05:45:38;;;;;;;20.92;6.70;;;;;;;4.03;70.82;102178.91;4971405;28;20031;-83
2022/11/26 05:48:04;;;;;;;5.82;3.88;;;;;;;3.99;70.78;102181.44;4972266;28;20031;-83
2022/11/26 05:50:30;;;;;;;10.55;5.22;;;;;;;3.73;70.93;102142.94;4972541;28;20394;-83
2022/11/26 05:52:56;;;;;;;4.32;3.90;;;;;;;3.85;71.07;102172.84;4972314;28;20066;-84
2022/11/26 05:55:21;;;;;;;6.60;3.53;;;;;;;3.86;71.03;102170.31;4988562;28;20038;-84
2022/11/26 05:57:46;;;;;;;5.70;5.10;;;;;;;3.91;71.16;102176.28;4972016;28;20031;-84
2022/11/26 06:00:14;;;;;;;4.60;2.72;;;;;;;3.91;70.98;102177.97;4972074;28;20501;-84
2022/11/26 06:02:39;;;;;;;10.15;6.25;;;;;;;3.97;71.40;102193.38;4988433;28;20030;-83
2022/11/26 06:05:05;;;;;;;8.30;3.78;;;;;;;3.98;71.13;102190.81;4956040;28;20527;-83
2022/11/26 06:07:31;;;;;;;7.85;4.65;;;;;;;4.03;70.86;102196.81;4972019;28;20027;-83
2022/11/26 06:09:56;;;;;;;16.58;6.15;;;;;;;3.99;71.04;102183.97;4971847;28;20035;-83
2022/11/26 06:12:22;;;;;;;8.93;5.45;;;;;;;4.10;71.11;102200.25;4971883;28;20037;-83
2022/11/26 06:14:47;;;;;;;13.48;7.13;;;;;;;4.09;71.09;102198.53;4972014;28;20035;-83
2022/11/26 06:17:13;;;;;;;8.85;4.47;;;;;;;4.04;70.83;102182.31;4971920;28;20053;-83
2022/11/26 06:19:38;;;;;;;10.60;5.88;;;;;;;4.17;70.74;102212.22;4955748;28;20031;-83
2022/11/26 06:22:04;;;;;;;10.32;7.07;;;;;;;4.24;70.96;102216.50;4988385;28;20041;-82
2022/11/26 06:24:29;;;;;;;8.10;5.18;;;;;;;4.21;70.53;102202.81;4971552;28;20109;-83
2022/11/26 06:26:55;;;;;;;8.35;4.95;;;;;;;4.22;70.88;102189.16;4988013;28;20027;-83
2022/11/26 06:29:20;;;;;;;8.88;5.93;;;;;;;4.29;71.08;102206.25;4971669;28;20420;-83
2022/11/26 06:31:46;;;;;;;11.30;5.38;;;;;;;4.30;70.53;102197.72;4971761;28;20089;-83
2022/11/26 06:34:11;;;;;;;9.90;6.57;;;;;;;4.35;70.25;102208.00;4987833;28;20036;-83
2022/11/26 06:36:37;;;;;;;11.93;5.93;;;;;;;4.34;70.46;102208.84;4967338;28;20019;-83
2022/11/26 06:39:02;;;;;;;13.48;5.55;;;;;;;4.22;70.48;102192.56;4952253;28;20105;-83
2022/11/26 06:41:28;;;;;;;14.15;8.13;;;;;;;4.47;70.32;102221.69;4952954;28;20051;-83
2022/11/26 06:43:53;;;;;;;7.18;4.55;;;;;;;4.46;70.23;102234.50;4952112;28;20039;-83
2022/11/26 06:46:19;;;;;;;6.82;4.60;;;;;;;4.58;69.56;102235.34;4935904;29;20110;-83
2022/11/26 06:48:44;;;;;;;5.63;4.00;;;;;;;4.60;69.36;102227.66;4936128;29;20050;-83
2022/11/26 06:51:11;;;;;;;5.75;4.80;;;;;;;4.53;69.14;102218.28;4936161;29;20031;-83
2022/11/26 06:53:37;;;;;;;7.07;4.35;;;;;;;4.64;69.29;102233.69;4935897;28;20067;-83
2022/11/26 06:56:04;;;;;;;4.28;3.28;;;;;;;4.53;69.45;102231.09;4935585;29;20066;-83
2022/11/26 06:58:30;;;;;;;5.88;4.50;;;;;;;4.62;69.04;102231.09;4936133;28;20069;-83
2022/11/26 07:00:56;;;;;;;13.75;6.85;;;;;;;4.67;68.62;102224.28;4936375;29;20089;-84
2022/11/26 07:03:22;;;;;;;9.27;5.03;;;;;;;4.82;68.57;102246.53;4953117;28;20027;-83
2022/11/26 07:05:47;;;;;;;9.13;4.88;;;;;;;4.76;68.43;102234.53;4936009;29;20038;-83
2022/11/26 07:08:13;;;;;;;12.75;4.15;;;;;;;4.82;68.20;102226.00;4935271;29;20032;-83
2022/11/26 07:10:38;;;;;;;9.23;4.65;;;;;;;5.04;67.77;102249.94;4935731;29;20395;-83
2022/11/26 07:13:04;;;;;;;6.35;4.20;;;;;;;5.03;67.81;102254.22;4935768;29;20082;-83
2022/11/26 07:15:29;;;;;;;8.50;4.13;;;;;;;4.95;67.76;102245.66;4951730;28;20035;-83
2022/11/26 07:17:55;;;;;;;8.25;4.50;;;;;;;5.04;67.44;102255.06;4935709;29;20473;-83
2022/11/26 07:20:20;;;;;;;9.68;6.82;;;;;;;5.04;67.41;102237.97;4935624;29;20038;-83
2022/11/26 07:22:46;;;;;;;6.32;4.35;;;;;;;5.15;67.29;102246.50;4951262;29;20119;-84
2022/11/26 07:25:11;;;;;;;8.52;3.47;;;;;;;5.16;67.44;102240.50;4935605;29;20059;-83
2022/11/26 07:27:37;;;;;;;9.73;5.75;;;;;;;5.18;66.83;102237.94;4950669;28;20030;-83
2022/11/26 07:30:04;;;;;;;6.15;4.53;;;;;;;5.22;66.67;102244.78;4954720;28;20026;-83
2022/11/26 07:32:29;;;;;;;11.98;5.45;;;;;;;5.25;66.95;102265.31;4954526;28;20461;-84
2022/11/26 07:34:55;;;;;;;8.73;5.15;;;;;;;5.26;66.78;102245.63;4954708;28;20178;-83
2022/11/26 07:37:20;;;;;;;10.65;5.72;;;;;;;5.27;66.30;102237.09;4954448;28;20031;-83
2022/11/26 07:39:46;;;;;;;8.82;6.72;;;;;;;5.37;66.19;102244.75;4970821;28;20038;-83
2022/11/26 07:42:12;;;;;;;16.23;6.72;;;;;;;5.46;65.94;102265.28;4986826;28;20105;-83
2022/11/26 07:44:38;;;;;;;11.98;6.18;;;;;;;5.61;65.60;102269.53;4986613;28;20033;-83
2022/11/26 07:47:04;;;;;;;7.07;4.38;;;;;;;5.64;65.85;102278.94;4954560;28;20031;-83
2022/11/26 07:49:29;;;;;;;15.88;7.13;;;;;;;5.66;65.91;102284.94;4954492;28;20027;-83
2022/11/26 07:51:55;;;;;;;8.63;5.53;;;;;;;5.66;65.62;102272.09;4954179;28;20407;-83
2022/11/26 07:54:20;;;;;;;6.45;4.10;;;;;;;5.78;65.85;102284.03;4970609;28;20467;-83
2022/11/26 07:56:45;;;;;;;11.70;4.93;;;;;;;5.89;65.64;102282.28;4970404;28;20026;-84
2022/11/26 07:59:11;;;;;;;8.25;5.60;;;;;;;5.98;65.43;102290.84;4970434;28;20038;-84
2022/11/26 08:01:36;;;;;;;6.88;4.50;;;;;;;5.98;65.25;102278.00;4954325;28;20034;-83
2022/11/26 08:04:04;;;;;;;8.00;4.72;;;;;;;6.13;64.46;102283.97;4954465;28;20089;-83
2022/11/26 08:06:29;;;;;;;7.47;4.95;;;;;;;6.28;63.84;102284.72;4954108;28;20026;-83
2022/11/26 08:08:55;;;;;;;8.23;3.95;;;;;;;6.36;63.47;102282.13;4972573;28;20054;-83
2022/11/26 08:11:28;;;;;;;6.65;4.93;;;;;;;6.21;63.60;102259.94;4974333;28;20109;-83
2022/11/26 08:14:01;;;;;;;8.95;4.85;;;;;;;6.40;63.49;102286.41;4988863;28;20030;-83
2022/11/26 08:16:26;;;;;;;7.88;3.85;;;;;;;6.43;64.21;102278.69;4974177;28;20027;-83
2022/11/26 08:18:53;;;;;;;4.15;2.47;;;;;;;6.47;63.82;102282.94;4957897;28;20034;-83
2022/11/26 08:21:19;;;;;;;9.20;4.75;;;;;;;6.60;63.76;102292.31;4973833;28;20034;-83
2022/11/26 08:23:44;;;;;;;14.60;4.95;;;;;;;6.31;63.22;102229.91;4974010;28;20440;-83
2022/11/26 08:26:11;;;;;;;6.55;3.97;;;;;;;6.69;63.17;102267.41;4973830;28;20023;-83
2022/11/26 08:28:37;;;;;;;6.47;4.07;;;;;;;6.84;62.74;102272.41;4974078;28;20027;-84
2022/11/26 08:31:07;;;;;;;10.57;3.63;;;;;;;7.00;61.92;102288.59;4990351;28;20046;-83
2022/11/26 08:33:32;;;;;;;5.90;3.53;;;;;;;6.88;60.55;102263.78;4973836;28;20027;-83
2022/11/26 08:35:58;;;;;;;4.35;2.28;;;;;;;6.92;59.18;102257.78;4989752;28;20195;-83
2022/11/26 08:38:25;;;;;;;4.07;2.83;;;;;;;7.08;59.09;102261.94;4989968;28;20074;-83
2022/11/26 08:40:51;;;;;;;5.57;3.45;;;;;;;7.29;59.51;102293.50;4989959;28;20119;-83
2022/11/26 08:43:16;;;;;;;8.48;3.70;;;;;;;7.32;59.37;102293.47;4989810;28;20023;-83
2022/11/26 08:45:41;;;;;;;6.22;2.50;;;;;;;7.41;58.96;102288.25;4973313;28;20067;-83
2022/11/26 08:48:07;;;;;;;2.25;2.00;;;;;;;7.44;59.66;102286.47;4989538;28;20483;-83
2022/11/26 08:50:33;;;;;;;4.63;2.10;;;;;;;7.57;57.06;102276.94;4973165;28;20065;-83
2022/11/26 08:52:58;;;;;;;2.10;1.90;;;;;;;7.39;57.45;102231.63;4973452;28;20034;-83
2022/11/26 08:55:24;;;;;;;7.78;2.78;;;;;;;7.69;58.17;102263.94;4974697;28;20031;-83
2022/11/26 08:57:49;;;;;;;6.13;4.13;;;;;;;7.89;57.19;102280.88;4973142;28;20077;-83
2022/11/26 09:00:15;;;;;;;8.00;3.72;;;;;;;7.97;56.81;102279.09;4973190;28;20039;-83
2022/11/26 09:02:41;;;;;;;5.72;3.53;;;;;;;8.04;55.96;102285.84;4971666;28;20053;-83
2022/11/26 09:05:06;;;;;;;6.68;2.28;;;;;;;7.97;55.86;102264.47;4956846;28;20058;-83
2022/11/26 09:07:32;;;;;;;10.50;4.03;;;;;;;8.07;56.74;102269.50;4972988;28;20057;-84
2022/11/26 09:09:57;;;;;;;5.45;3.22;;;;;;;8.24;55.74;102286.44;4957088;28;20484;-83
2022/11/26 09:12:23;;;;;;;2.35;1.70;;;;;;;8.19;54.89;102267.63;4956981;28;20035;-84
2022/11/26 09:14:48;;;;;;;7.50;2.53;;;;;;;8.34;55.35;102290.66;4972828;28;20412;-83
2022/11/26 09:17:14;;;;;;;3.83;2.33;;;;;;;8.41;55.44;102283.69;4956901;28;20069;-83
2022/11/26 09:19:39;;;;;;;4.57;3.20;;;;;;;8.45;55.04;102277.59;4972589;28;20389;-83
2022/11/26 09:22:05;;;;;;;5.68;2.53;;;;;;;8.60;54.83;102297.19;4973166;28;20480;-83
2022/11/26 09:24:30;;;;;;;3.92;2.55;;;;;;;8.54;54.92;102292.97;4972686;28;20050;-84
2022/11/26 09:26:56;;;;;;;2.17;1.33;;;;;;;8.56;54.59;102296.41;4956765;28;20031;-83
2022/11/26 09:29:23;;;;;;;8.05;3.40;;;;;;;8.42;54.68;102295.72;4956580;28;20031;-83
2022/11/26 09:31:49;;;;;;;2.65;1.55;;;;;;;8.29;54.70;102270.94;4988950;28;20035;-83
2022/11/26 09:34:15;;;;;;;3.55;2.47;;;;;;;8.29;54.23;102292.41;4972072;28;20077;-83
2022/11/26 09:36:40;;;;;;;2.63;2.25;;;;;;;8.37;54.70;102294.09;4956582;28;20465;-83
2022/11/26 09:39:06;;;;;;;2.38;1.67;;;;;;;8.29;54.58;102274.38;4956263;28;20031;-83
2022/11/26 09:41:56;;;;;;;4.03;2.55;;;;;;;8.53;54.64;102290.41;4956508;28;20027;-83
2022/11/26 09:44:47;;;;;;;4.80;2.45;;;;;;;8.62;53.69;102290.28;4972216;28;20031;-84
2022/11/26 09:47:21;;;;;;;5.38;3.28;;;;;;;8.44;53.57;102255.28;4962731;28;20045;-84
2022/11/26 09:50:05;;;;;;;4.55;2.25;;;;;;;8.58;53.74;102262.84;4971957;28;20019;-84
2022/11/26 09:52:53;;;;;;;2.22;1.67;;;;;;;8.77;53.53;102296.97;4971297;28;20440;-83
2022/11/26 09:55:19;;;;;;;8.82;3.65;;;;;;;8.74;53.44;102291.81;4972247;28;20405;-83
2022/11/26 09:58:06;;;;;;;3.63;2.92;;;;;;;8.77;53.76;102295.22;4988150;28;20101;-84
2022/11/26 10:00:40;;;;;;;3.78;2.58;;;;;;;8.87;53.25;102286.47;4988343;28;20037;-83
2022/11/26 10:03:16;;;;;;;2.78;1.98;;;;;;;9.04;53.06;102285.34;4987692;28;20030;-84
2022/11/26 10:05:59;;;;;;;3.40;2.08;;;;;;;9.18;52.61;102286.81;4955922;28;20070;-83
2022/11/26 10:08:40;;;;;;;2.25;1.95;;;;;;;9.24;50.95;102290.16;4988226;28;20503;-84
2022/11/26 10:11:05;;;;;;;8.02;2.70;;;;;;;9.28;51.50;102292.69;4988526;28;20535;-83
2022/11/26 10:14:06;;;;;;;4.75;1.25;;;;;;;9.30;51.36;102290.06;4973141;28;20039;-83
2022/11/26 10:16:37;;;;;;;3.97;2.33;;;;;;;9.32;51.14;102290.91;4970640;28;20030;-84
2022/11/26 10:19:19;;;;;;;1.80;1.50;;;;;;;9.28;51.45;102286.69;4971847;28;20081;-84
2022/11/26 10:21:50;;;;;;;7.57;2.60;;;;;;;9.35;51.77;102294.31;4971626;28;20027;-84
2022/11/26 10:24:29;;;;;;;5.00;2.78;;;;;;;9.36;51.48;102285.66;4987359;28;20081;-84
2022/11/26 10:26:54;;;;;;;3.65;2.03;;;;;;;9.52;51.05;102290.53;4971812;28;20027;-84
2022/11/26 10:29:24;;;;;;;3.50;2.60;;;;;;;9.46;50.92;102270.84;4955503;28;20105;-83
2022/11/26 10:31:54;;;;;;;4.03;1.77;;;;;;;9.24;50.41;102217.88;4970902;28;20033;-84
2022/11/26 10:34:48;;;;;;;3.88;2.33;;;;;;;9.56;50.43;102281.88;4987714;28;20038;-83
2022/11/26 10:37:14;;;;;;;3.00;1.67;;;;;;;9.64;51.08;102285.19;4971925;28;20505;-83
2022/11/26 10:39:39;;;;;;;1.33;1.05;;;;;;;9.67;50.24;102269.59;4971302;28;20070;-84
2022/11/26 10:42:17;;;;;;;2.65;1.50;;;;;;;9.52;50.47;102231.97;4971455;28;20031;-83
2022/11/26 10:44:42;;;;;;;4.22;1.90;;;;;;;9.77;51.29;102271.13;4971257;28;20026;-84
2022/11/26 10:47:14;;;;;;;2.05;1.38;;;;;;;9.79;50.70;102279.69;4987192;28;20033;-84
2022/11/26 10:49:39;;;;;;;3.95;1.77;;;;;;;9.85;50.35;102273.56;4971246;28;20081;-83
2022/11/26 10:52:06;;;;;;;2.22;1.77;;;;;;;9.91;51.07;102273.44;4970987;28;20039;-83
2022/11/26 10:54:36;;;;;;;4.50;2.55;;;;;;;9.66;49.87;102211.06;4971312;28;20034;-84
2022/11/26 10:57:07;;;;;;;2.30;1.27;;;;;;;10.03;49.80;102273.22;4971129;28;20475;-84
2022/11/26 10:59:39;;;;;;;1.80;1.40;;;;;;;9.90;49.42;102254.50;4972156;28;20113;-83
2022/11/26 11:02:30;;;;;;;1.52;1.00;;;;;;;10.12;50.06;102267.81;4986569;28;20034;-84
2022/11/26 11:04:56;;;;;;;3.47;1.70;;;;;;;10.08;50.57;102266.19;4987340;28;20031;-84
2022/11/26 11:07:52;;;;;;;1.85;1.55;;;;;;;10.26;49.92;102252.91;4971102;28;20448;-84
2022/11/26 11:10:19;;;;;;;3.20;2.17;;;;;;;10.30;49.77;102251.09;4969419;28;20045;-84
2022/11/26 11:12:49;;;;;;;3.33;1.35;;;;;;;10.27;49.10;102254.59;4970961;28;20035;-83
2022/11/26 11:15:23;;;;;;;4.30;2.00;;;;;;;10.35;49.40;102244.09;4970701;28;20058;-84
2022/11/26 11:18:02;;;;;;;1.13;1.00;;;;;;;10.44;48.62;102249.06;4970787;28;20031;-84
2022/11/26 11:20:30;;;;;;;1.92;1.27;;;;;;;10.32;49.27;102245.03;4986701;28;20023;-83
2022/11/26 11:23:10;;;;;;;3.78;2.15;;;;;;;10.44;48.90;102249.06;4955441;28;20197;-84
2022/11/26 11:25:37;;;;;;;3.05;1.80;;;;;;;10.41;49.19;102245.69;4972093;28;20138;-83
2022/11/26 11:28:20;;;;;;;1.60;1.10;;;;;;;10.40;48.62;102229.31;4954594;28;20030;-84
2022/11/26 11:30:45;;;;;;;;;;;;;;;10.51;48.75;102242.00;4954706;28;20054;-84
2022/11/26 11:33:23;;;;;;;3.00;1.92;;;;;;;10.43;49.62;102242.19;4970807;28;20372;-83
2022/11/26 11:36:12;;;;;;;4.07;2.05;;;;;;;10.28;48.95;102212.34;4970733;28;20456;-83
2022/11/26 11:38:53;;;;;;;3.22;2.50;;;;;;;10.43;49.84;102236.16;4985134;28;20054;-84